Terminal Aerodrome Forecast
Issued by NWS Springfield, MO

Current Version | Previous Version | Text Only | Print | Product List | Glossary On
Versions: 1 2 3 4 5 6 7 8 9 10 11 12 13 14 15 16 17 18 19 20 21 22 23 24 25 26 27 28 29
000
FTUS43 KSGF 281700
TAFSGF
TAF
KSGF 281720Z 2818/2918 15012KT P6SM VCTS FEW015 SCT040CB
      TEMPO 2819/2823 4SM -TSRA BR OVC040CB
     FM290200 15008KT P6SM OVC100
     FM290800 17008KT P6SM OVC100 WS020/22035KT
     FM291200 18008KT 4SM BR OVC250
     FM291400 19010KT P6SM BKN100 OVC250=

USA.gov is the U.S. government's official web portal to all federal, state and local government web resources and services.